Time;durP1;ratioP1;P1;durP2;ratioP2;P2;SDS_P1;SDS_P2;PMS_P1;PMS_P2;Temp;Humidity;BMP_temperature;BMP_pressure;BME280_temperature;BME280_humidity;BME280_pressure;Samples;Min_cycle;Max_cycle;Signal;HPM_P1;HPM_P2
2021/05/02 00:00:11;;;;;;;1.80;1.67;;;7.50;99.90;;;;;;5072231;28;20052;-72
2021/05/02 00:02:37;;;;;;;4.18;1.00;;;7.30;99.90;;;;;;5072335;28;20024;-73
2021/05/02 00:05:05;;;;;;;2.17;1.17;;;7.20;99.90;;;;;;5072156;28;20024;-73
2021/05/02 00:07:30;;;;;;;2.53;1.42;;;7.10;99.90;;;;;;5070971;28;20021;-72
2021/05/02 00:09:57;;;;;;;2.45;1.40;;;7.10;99.90;;;;;;5072199;28;20035;-72
2021/05/02 00:12:24;;;;;;;1.27;1.17;;;7.20;99.90;;;;;;5072197;28;20028;-72
2021/05/02 00:14:50;;;;;;;1.30;1.20;;;7.20;99.90;;;;;;5072031;28;20395;-71
2021/05/02 00:17:16;;;;;;;1.40;1.20;;;7.20;99.90;;;;;;5071992;28;20024;-73
2021/05/02 00:19:44;;;;;;;1.20;1.10;;;7.30;99.90;;;;;;5070784;28;20021;-73
2021/05/02 00:22:11;;;;;;;1.20;1.10;;;7.30;99.90;;;;;;5072134;28;20055;-72
2021/05/02 00:24:38;;;;;;;2.55;1.10;;;7.20;99.90;;;;;;5070800;28;20149;-72
2021/05/02 00:27:04;;;;;;;1.60;1.50;;;7.20;99.90;;;;;;5072225;28;20021;-73
2021/05/02 00:29:31;;;;;;;1.27;1.17;;;7.30;99.90;;;;;;5072027;28;20384;-72
2021/05/02 00:31:58;;;;;;;1.10;1.00;;;7.10;99.90;;;;;;5071957;28;20024;-73
2021/05/02 00:34:27;;;;;;;2.63;1.48;;;7.20;99.90;;;;;;5070667;28;20068;-72
2021/05/02 00:36:53;;;;;;;1.23;1.10;;;6.90;99.90;;;;;;5071940;28;20392;-72
2021/05/02 00:39:19;;;;;;;2.95;1.30;;;6.70;99.90;;;;;;5071864;28;20024;-72
2021/05/02 00:41:47;;;;;;;1.08;1.02;;;6.50;99.90;;;;;;5071907;28;20409;-72
2021/05/02 00:44:37;;;;;;;4.18;1.10;;;6.50;99.90;;;;;;5071853;28;20031;-72
2021/05/02 00:47:11;;;;;;;1.98;1.10;;;6.50;99.90;;;;;;5071729;28;20116;-72
2021/05/02 00:49:56;;;;;;;0.70;0.70;;;6.30;99.90;;;;;;5071811;28;20082;-72
2021/05/02 00:52:35;;;;;;;0.90;0.90;;;6.20;99.90;;;;;;5075960;28;20447;-72
2021/05/02 00:55:10;;;;;;;1.08;1.00;;;6.10;99.90;;;;;;5075826;28;20717;-72
2021/05/02 00:57:50;;;;;;;3.95;0.73;;;6.20;99.90;;;;;;5075777;28;20032;-72
2021/05/02 01:00:19;;;;;;;0.43;0.43;;;6.20;99.90;;;;;;5075703;28;20063;-72
2021/05/02 01:02:46;;;;;;;2.70;0.90;;;6.00;99.90;;;;;;5075675;28;20024;-72
2021/05/02 01:05:13;;;;;;;0.90;0.90;;;5.70;99.90;;;;;;5075442;28;20546;-72
2021/05/02 01:07:41;;;;;;;0.98;0.90;;;5.70;99.90;;;;;;5075485;28;20020;-73
2021/05/02 01:10:11;;;;;;;1.00;0.98;;;5.80;99.90;;;;;;5074165;28;20115;-71
2021/05/02 01:12:47;;;;;;;0.90;0.90;;;5.80;99.90;;;;;;5075434;28;20025;-72
2021/05/02 01:15:23;;;;;;;3.30;0.68;;;5.70;99.90;;;;;;5075374;28;20427;-72
2021/05/02 01:17:59;;;;;;;0.80;0.80;;;5.50;99.90;;;;;;5074140;28;20032;-72
2021/05/02 01:20:30;;;;;;;0.77;0.77;;;5.60;99.90;;;;;;5075326;28;20046;-72
2021/05/02 01:23:04;;;;;;;0.70;0.70;;;5.40;99.90;;;;;;5074157;28;20388;-72
2021/05/02 01:25:31;;;;;;;0.60;0.60;;;5.40;99.90;;;;;;5075200;28;20073;-72
2021/05/02 01:27:58;;;;;;;0.73;0.60;;;5.30;99.90;;;;;;5075150;28;20492;-72
2021/05/02 01:30:26;;;;;;;0.98;0.90;;;5.30;99.90;;;;;;5075008;28;20483;-72
2021/05/02 01:32:52;;;;;;;0.75;0.75;;;5.20;99.90;;;;;;5075090;28;20013;-73
2021/05/02 01:35:18;;;;;;;0.80;0.80;;;5.20;99.90;;;;;;5073677;28;20434;-71
2021/05/02 01:37:49;;;;;;;0.80;0.80;;;5.20;99.90;;;;;;5074849;28;20111;-72
2021/05/02 01:40:17;;;;;;;1.65;1.17;;;5.30;99.90;;;;;;5074837;28;20155;-72
2021/05/02 01:42:43;;;;;;;0.65;0.60;;;5.20;99.90;;;;;;5074925;28;20040;-72
2021/05/02 01:45:09;;;;;;;0.95;0.60;;;5.30;99.90;;;;;;5074803;28;20476;-72
2021/05/02 01:47:41;;;;;;;3.08;0.70;;;5.10;99.90;;;;;;5073601;28;20032;-72
2021/05/02 01:50:10;;;;;;;1.48;0.85;;;5.10;99.90;;;;;;5074818;28;20085;-72
2021/05/02 01:52:44;;;;;;;0.82;0.68;;;5.10;99.90;;;;;;5074674;28;20472;-72
2021/05/02 01:55:11;;;;;;;0.60;0.60;;;5.00;99.90;;;;;;5074739;28;20035;-72
2021/05/02 01:57:37;;;;;;;0.70;0.70;;;5.00;99.90;;;;;;5073370;28;20032;-72
2021/05/02 02:00:11;;;;;;;0.80;0.80;;;5.00;99.90;;;;;;5074429;28;20703;-72
2021/05/02 02:02:38;;;;;;;0.80;0.70;;;4.90;99.90;;;;;;5056272;28;20016;-72
2021/05/02 02:05:05;;;;;;;0.95;0.90;;;4.80;99.90;;;;;;5074393;28;20388;-72
2021/05/02 02:07:32;;;;;;;0.60;0.60;;;4.80;99.90;;;;;;5074463;28;20353;-72
2021/05/02 02:09:58;;;;;;;0.63;0.63;;;4.90;99.90;;;;;;5073134;28;20461;-72
2021/05/02 02:12:24;;;;;;;0.80;0.80;;;4.90;99.90;;;;;;5074374;28;20112;-72
2021/05/02 02:14:51;;;;;;;0.80;0.80;;;4.90;99.90;;;;;;5073048;28;20032;-72
2021/05/02 02:17:19;;;;;;;0.63;0.63;;;4.90;99.90;;;;;;5074208;28;20388;-72
2021/05/02 02:19:45;;;;;;;1.38;0.88;;;4.80;99.90;;;;;;5074209;28;20024;-72
2021/05/02 02:22:13;;;;;;;1.33;0.90;;;4.70;99.90;;;;;;5072827;28;20021;-72
2021/05/02 02:24:50;;;;;;;0.63;0.63;;;4.70;99.90;;;;;;5074169;28;20409;-72
2021/05/02 02:27:19;;;;;;;0.75;0.75;;;4.80;99.90;;;;;;5074161;28;20487;-72
2021/05/02 02:29:48;;;;;;;0.80;0.80;;;4.80;99.90;;;;;;5073994;28;20059;-72
2021/05/02 02:32:16;;;;;;;1.25;0.88;;;4.90;99.90;;;;;;5073989;28;20021;-72
2021/05/02 02:34:44;;;;;;;2.13;0.70;;;4.90;99.90;;;;;;5073954;28;20029;-72
2021/05/02 02:37:18;;;;;;;1.10;0.73;;;5.00;99.90;;;;;;5073826;28;20024;-72
2021/05/02 02:39:57;;;;;;;0.77;0.77;;;5.00;99.90;;;;;;5073819;28;20021;-72
2021/05/02 02:42:28;;;;;;;0.57;0.57;;;4.80;99.90;;;;;;5073739;28;20036;-72
2021/05/02 02:44:57;;;;;;;0.50;0.50;;;4.70;99.90;;;;;;5072558;28;20146;-72
2021/05/02 02:47:27;;;;;;;1.13;0.60;;;4.80;99.90;;;;;;5073585;28;20025;-72
2021/05/02 02:50:00;;;;;;;0.80;0.80;;;4.80;99.90;;;;;;5073667;28;20028;-72
2021/05/02 02:52:28;;;;;;;0.93;0.60;;;4.80;99.90;;;;;;5073565;28;20025;-72
2021/05/02 02:55:07;;;;;;;0.50;0.50;;;4.70;99.90;;;;;;5072211;28;20043;-72
2021/05/02 02:57:51;;;;;;;0.73;0.73;;;4.60;99.90;;;;;;5073376;28;20071;-72
2021/05/02 03:00:26;;;;;;;0.60;0.60;;;4.50;99.90;;;;;;5055467;28;20125;-72
2021/05/02 03:03:09;;;;;;;0.40;0.40;;;4.50;99.90;;;;;;5072058;28;20020;-71
2021/05/02 03:05:37;;;;;;;0.70;0.60;;;4.40;99.90;;;;;;5073195;28;20032;-71
2021/05/02 03:08:06;;;;;;;0.50;0.50;;;4.40;99.90;;;;;;5071975;28;20484;-72
2021/05/02 03:10:32;;;;;;;0.45;0.45;;;4.60;99.90;;;;;;5072014;28;20021;-72
2021/05/02 03:12:59;;;;;;;0.50;0.50;;;4.60;99.90;;;;;;5071108;28;20070;-71
2021/05/02 03:15:26;;;;;;;2.60;0.70;;;4.80;99.90;;;;;;5073086;28;20028;-72
2021/05/02 03:18:02;;;;;;;0.40;0.40;;;4.70;99.90;;;;;;5071681;28;20029;-72
2021/05/02 03:20:31;;;;;;;0.50;0.50;;;4.80;99.90;;;;;;5071834;28;20492;-72
2021/05/02 03:23:04;;;;;;;0.43;0.43;;;4.70;99.90;;;;;;5072972;28;20017;-73
2021/05/02 03:25:31;;;;;;;0.47;0.47;;;4.70;99.90;;;;;;5072912;28;20020;-72
2021/05/02 03:28:03;;;;;;;0.65;0.50;;;4.50;99.90;;;;;;5054833;28;20392;-72
2021/05/02 03:30:30;;;;;;;0.50;0.50;;;4.60;99.90;;;;;;5071583;28;20475;-72
2021/05/02 03:32:57;;;;;;;0.40;0.40;;;4.70;99.90;;;;;;5072816;28;20032;-72
2021/05/02 03:35:27;;;;;;;0.60;0.60;;;4.90;99.90;;;;;;5071525;28;20025;-72
2021/05/02 03:38:22;;;;;;;2.30;0.50;;;4.70;99.90;;;;;;5054716;28;20476;-72
2021/05/02 03:40:49;;;;;;;0.30;0.30;;;4.80;99.90;;;;;;5072691;28;20043;-72
2021/05/02 03:43:15;;;;;;;0.20;0.20;;;4.60;99.90;;;;;;5072552;28;20480;-72
2021/05/02 03:45:41;;;;;;;0.30;0.30;;;4.60;99.90;;;;;;5071269;28;20475;-72
2021/05/02 03:48:07;;;;;;;0.40;0.40;;;4.70;99.90;;;;;;5071353;28;20021;-72
2021/05/02 03:50:33;;;;;;;0.47;0.47;;;4.80;99.90;;;;;;5071229;28;20040;-72
2021/05/02 03:52:59;;;;;;;0.40;0.40;;;4.70;99.90;;;;;;5072554;28;20028;-72
2021/05/02 03:55:25;;;;;;;0.40;0.40;;;4.70;99.90;;;;;;5072380;28;20029;-73
2021/05/02 03:57:51;;;;;;;0.47;0.47;;;4.70;99.90;;;;;;5072421;28;20029;-73
2021/05/02 04:00:17;;;;;;;0.50;0.50;;;4.60;99.90;;;;;;5072293;28;20110;-72
2021/05/02 04:02:43;;;;;;;0.40;0.40;;;4.40;99.90;;;;;;5072347;28;20084;-73
2021/05/02 04:05:09;;;;;;;0.28;0.28;;;4.50;99.90;;;;;;5072226;28;20032;-73
2021/05/02 04:07:34;;;;;;;0.40;0.40;;;4.50;99.90;;;;;;5070903;28;20032;-72
2021/05/02 04:10:00;;;;;;;0.35;0.35;;;4.60;99.90;;;;;;5072332;28;20028;-73
2021/05/02 04:12:26;;;;;;;0.35;0.35;;;4.60;99.90;;;;;;5072222;28;20027;-73
2021/05/02 04:14:52;;;;;;;0.47;0.32;;;4.60;99.90;;;;;;5070977;28;20388;-72
2021/05/02 04:17:17;;;;;;;0.30;0.30;;;4.50;99.90;;;;;;5072076;28;20033;-72
2021/05/02 04:19:46;;;;;;;0.30;0.30;;;4.50;99.90;;;;;;5072083;28;20033;-73
2021/05/02 04:22:14;;;;;;;0.40;0.40;;;4.40;99.90;;;;;;5072253;28;20019;-72
2021/05/02 04:24:40;;;;;;;0.30;0.30;;;4.50;99.90;;;;;;5070731;28;20502;-73
2021/05/02 04:27:06;;;;;;;0.40;0.40;;;4.50;99.90;;;;;;5072057;28;20423;-73
2021/05/02 04:29:33;;;;;;;0.38;0.38;;;4.60;99.90;;;;;;5072035;28;20024;-73
2021/05/02 04:32:00;;;;;;;0.40;0.40;;;4.60;99.90;;;;;;5070881;28;20048;-73
2021/05/02 04:34:26;;;;;;;0.40;0.40;;;4.50;99.90;;;;;;5072006;28;20519;-72
2021/05/02 04:36:54;;;;;;;1.63;0.60;;;4.50;99.90;;;;;;5071899;28;20112;-73
2021/05/02 04:39:20;;;;;;;0.40;0.40;;;4.50;99.90;;;;;;5071827;28;20020;-73
2021/05/02 04:41:46;;;;;;;0.47;0.47;;;4.60;99.90;;;;;;5071927;28;20036;-73
2021/05/02 04:44:12;;;;;;;0.40;0.40;;;4.60;99.90;;;;;;5071847;28;20032;-72
2021/05/02 04:46:39;;;;;;;0.32;0.32;;;4.50;99.90;;;;;;5071817;28;20048;-72
2021/05/02 04:49:06;;;;;;;0.30;0.30;;;4.50;99.90;;;;;;5071874;28;20036;-72
2021/05/02 04:51:32;;;;;;;0.40;0.40;;;4.60;99.90;;;;;;5071823;28;20029;-73
2021/05/02 04:53:58;;;;;;;0.30;0.30;;;4.70;99.90;;;;;;5071780;28;20399;-72
2021/05/02 04:56:24;;;;;;;0.40;0.40;;;4.70;99.90;;;;;;5071699;28;20024;-73
2021/05/02 04:58:49;;;;;;;0.40;0.40;;;4.60;99.90;;;;;;5071737;28;20035;-72
2021/05/02 05:01:15;;;;;;;0.47;0.47;;;4.70;99.90;;;;;;5071685;28;20021;-73
2021/05/02 05:03:45;;;;;;;0.40;0.40;;;4.80;99.90;;;;;;5071722;28;20082;-73
2021/05/02 05:06:11;;;;;;;0.30;0.30;;;4.80;99.90;;;;;;5071493;28;20077;-72
2021/05/02 05:08:41;;;;;;;0.30;0.30;;;4.70;99.90;;;;;;5070390;28;20068;-73
2021/05/02 05:11:07;;;;;;;0.40;0.40;;;4.80;99.90;;;;;;5071646;28;20086;-72
2021/05/02 05:13:33;;;;;;;0.43;0.43;;;4.70;99.90;;;;;;5070369;28;20611;-73
2021/05/02 05:16:00;;;;;;;0.30;0.30;;;4.50;99.90;;;;;;5070246;28;20051;-72
2021/05/02 05:18:26;;;;;;;0.20;0.20;;;4.60;99.90;;;;;;5071578;28;20020;-73
2021/05/02 05:20:54;;;;;;;0.32;0.32;;;4.80;99.90;;;;;;5071568;28;20048;-72
2021/05/02 05:23:20;;;;;;;0.30;0.30;;;4.70;99.90;;;;;;5071590;28;20012;-72
2021/05/02 05:25:46;;;;;;;0.30;0.30;;;4.70;99.90;;;;;;5071378;28;20031;-72
2021/05/02 05:28:12;;;;;;;0.40;0.40;;;4.80;99.90;;;;;;5071526;28;20020;-73
2021/05/02 05:30:38;;;;;;;0.30;0.30;;;4.80;99.90;;;;;;5071489;28;20021;-73
2021/05/02 05:33:05;;;;;;;0.30;0.30;;;4.90;99.90;;;;;;5071485;28;20100;-72
2021/05/02 05:35:31;;;;;;;0.35;0.35;;;5.00;99.90;;;;;;5071393;28;20025;-73
2021/05/02 05:37:57;;;;;;;0.30;0.30;;;5.00;99.90;;;;;;5074382;28;20024;-72
2021/05/02 05:40:25;;;;;;;0.20;0.20;;;5.00;99.90;;;;;;5073695;28;20491;-72
2021/05/02 05:42:51;;;;;;;0.88;0.50;;;4.90;99.90;;;;;;5074922;28;20040;-73
2021/05/02 05:45:19;;;;;;;0.20;0.20;;;4.80;99.90;;;;;;5074929;28;20024;-73
2021/05/02 05:47:53;;;;;;;0.28;0.28;;;4.80;99.90;;;;;;5074748;28;20024;-73
2021/05/02 05:50:20;;;;;;;0.30;0.30;;;4.80;99.90;;;;;;5074840;28;20097;-73
2021/05/02 05:52:47;;;;;;;0.30;0.30;;;4.70;99.90;;;;;;5073371;28;20024;-73
2021/05/02 05:55:14;;;;;;;0.20;0.20;;;4.80;99.90;;;;;;5074692;28;20040;-73
2021/05/02 05:57:41;;;;;;;0.25;0.25;;;4.80;99.90;;;;;;5073419;28;20031;-72
2021/05/02 06:00:09;;;;;;;0.30;0.30;;;4.70;99.90;;;;;;5074558;28;20028;-73
2021/05/02 06:02:35;;;;;;;0.30;0.30;;;4.70;99.90;;;;;;5073257;28;20025;-72
2021/05/02 06:05:02;;;;;;;0.47;0.47;;;4.80;99.90;;;;;;5074533;28;20024;-73
2021/05/02 06:07:27;;;;;;;0.35;0.35;;;4.70;99.90;;;;;;5074381;28;20095;-73
2021/05/02 06:09:53;;;;;;;0.40;0.40;;;4.80;99.90;;;;;;5073260;28;20071;-73
2021/05/02 06:12:20;;;;;;;0.47;0.47;;;4.80;99.90;;;;;;5074412;28;20112;-73
2021/05/02 06:14:46;;;;;;;0.20;0.20;;;4.70;99.90;;;;;;5074224;28;20103;-72
2021/05/02 06:17:12;;;;;;;0.20;0.20;;;4.70;99.90;;;;;;5074261;28;20365;-73
2021/05/02 06:19:38;;;;;;;0.50;0.50;;;4.70;99.90;;;;;;5074163;28;20027;-72
2021/05/02 06:22:04;;;;;;;0.20;0.20;;;4.60;99.90;;;;;;5074276;28;20052;-72
2021/05/02 06:24:30;;;;;;;0.25;0.25;;;4.80;99.90;;;;;;5074151;28;20031;-73
2021/05/02 06:26:56;;;;;;;0.20;0.20;;;5.00;99.90;;;;;;5073914;28;20020;-72
2021/05/02 06:29:22;;;;;;;0.50;0.50;;;5.00;99.90;;;;;;5074151;28;20074;-73
2021/05/02 06:31:48;;;;;;;0.20;0.20;;;4.90;99.90;;;;;;5074004;28;20021;-72
2021/05/02 06:34:14;;;;;;;0.30;0.30;;;4.90;99.90;;;;;;5069661;28;20027;-73
2021/05/02 06:36:41;;;;;;;0.70;0.70;;;4.90;99.90;;;;;;5073784;28;20025;-73
2021/05/02 06:39:08;;;;;;;0.28;0.28;;;4.80;99.90;;;;;;5073783;28;20044;-73
2021/05/02 06:41:39;;;;;;;0.38;0.38;;;4.80;99.90;;;;;;5073890;28;20025;-73
2021/05/02 06:44:05;;;;;;;0.30;0.30;;;4.90;99.90;;;;;;5073821;28;20062;-73
2021/05/02 06:46:31;;;;;;;0.40;0.40;;;5.00;99.90;;;;;;5072399;28;20020;-73
2021/05/02 06:49:02;;;;;;;0.30;0.30;;;5.10;99.90;;;;;;5071356;28;20024;-73
2021/05/02 06:51:28;;;;;;;0.30;0.30;;;5.10;99.90;;;;;;5073681;28;20028;-72
2021/05/02 06:53:55;;;;;;;0.20;0.20;;;5.00;99.90;;;;;;5073578;28;20024;-72
2021/05/02 06:56:25;;;;;;;1.10;0.60;;;5.00;99.90;;;;;;5072228;28;20029;-73
2021/05/02 06:58:52;;;;;;;0.98;0.75;;;5.10;99.90;;;;;;5073574;28;20035;-73
2021/05/02 07:01:18;;;;;;;0.40;0.40;;;5.10;99.90;;;;;;5073468;28;20513;-73
2021/05/02 07:03:44;;;;;;;0.20;0.20;;;4.90;99.90;;;;;;5072086;28;20043;-73
2021/05/02 07:06:10;;;;;;;0.55;0.55;;;5.00;99.90;;;;;;5073079;28;20480;-73
2021/05/02 07:08:36;;;;;;;0.95;0.52;;;5.10;99.90;;;;;;5073239;28;20025;-73
2021/05/02 07:11:03;;;;;;;0.28;0.28;;;5.10;99.90;;;;;;5052564;28;20021;-73
2021/05/02 07:13:29;;;;;;;0.32;0.32;;;5.10;99.90;;;;;;5051795;28;20029;-73
2021/05/02 07:15:56;;;;;;;0.40;0.40;;;5.00;99.90;;;;;;5053076;28;20116;-73
2021/05/02 07:18:22;;;;;;;0.63;0.35;;;5.00;99.90;;;;;;5052966;28;20024;-73
2021/05/02 07:20:50;;;;;;;0.30;0.30;;;4.90;99.90;;;;;;5062710;28;20028;-73
2021/05/02 07:23:16;;;;;;;0.68;0.60;;;5.00;99.90;;;;;;5072960;28;20021;-73
2021/05/02 07:25:42;;;;;;;0.80;0.80;;;5.00;99.90;;;;;;5072844;28;20031;-73
2021/05/02 07:28:09;;;;;;;1.60;0.98;;;5.00;99.90;;;;;;5072497;28;20500;-73
2021/05/02 07:30:35;;;;;;;1.33;1.23;;;5.10;99.90;;;;;;5067067;28;20035;-73
2021/05/02 07:33:01;;;;;;;1.48;1.38;;;5.10;99.90;;;;;;5052857;28;20467;-72
2021/05/02 07:35:27;;;;;;;1.58;1.48;;;5.10;99.90;;;;;;5052764;28;20492;-72
2021/05/02 07:37:53;;;;;;;1.55;1.42;;;5.10;99.90;;;;;;5052638;28;20079;-72
2021/05/02 07:40:21;;;;;;;3.33;2.03;;;5.20;99.90;;;;;;5052605;28;20021;-73
2021/05/02 07:42:47;;;;;;;2.42;2.20;;;5.20;99.90;;;;;;5052694;28;20430;-73
2021/05/02 07:45:13;;;;;;;1.70;1.50;;;5.40;99.90;;;;;;5052594;28;20112;-73
2021/05/02 07:47:40;;;;;;;1.83;1.48;;;5.30;99.90;;;;;;5052494;28;20096;-73
2021/05/02 07:50:07;;;;;;;2.35;1.63;;;5.30;99.90;;;;;;5051291;28;20032;-73
2021/05/02 07:52:33;;;;;;;1.88;1.70;;;5.20;99.90;;;;;;5052493;28;20083;-72
2021/05/02 07:54:59;;;;;;;2.53;1.65;;;5.30;99.90;;;;;;5052482;28;20021;-73
2021/05/02 07:57:25;;;;;;;1.90;1.70;;;5.30;99.90;;;;;;5052306;28;20025;-73
2021/05/02 07:59:51;;;;;;;1.60;1.50;;;5.40;99.90;;;;;;5034054;28;20628;-73
2021/05/02 08:02:18;;;;;;;1.70;1.60;;;5.20;99.90;;;;;;5053000;28;20040;-73
2021/05/02 08:04:45;;;;;;;1.55;1.45;;;5.00;99.90;;;;;;5072159;28;20103;-73
2021/05/02 08:07:11;;;;;;;1.90;1.80;;;5.10;99.90;;;;;;5072318;28;20025;-73
2021/05/02 08:09:37;;;;;;;1.45;1.35;;;5.10;99.90;;;;;;5072344;28;20031;-73
2021/05/02 08:12:04;;;;;;;2.05;1.85;;;5.20;99.90;;;;;;5072347;28;20025;-73
2021/05/02 08:14:30;;;;;;;2.13;1.90;;;5.10;99.90;;;;;;5072113;28;20384;-73
2021/05/02 08:16:56;;;;;;;2.95;1.98;;;5.00;99.90;;;;;;5072195;28;20031;-73
2021/05/02 08:19:22;;;;;;;1.65;1.55;;;5.20;99.90;;;;;;5070946;28;20416;-73
2021/05/02 08:21:48;;;;;;;2.15;1.95;;;5.10;99.90;;;;;;5072138;28;20097;-73
2021/05/02 08:24:15;;;;;;;1.67;1.58;;;5.10;99.90;;;;;;5072499;28;20432;-73
2021/05/02 08:26:41;;;;;;;2.10;1.90;;;5.10;99.90;;;;;;5070833;28;20024;-73
2021/05/02 08:29:07;;;;;;;1.60;1.50;;;5.20;99.90;;;;;;5072155;28;20028;-73
2021/05/02 08:31:33;;;;;;;1.88;1.75;;;5.30;99.90;;;;;;5070835;28;20141;-73
2021/05/02 08:33:59;;;;;;;2.25;2.05;;;5.30;99.90;;;;;;5072118;28;20025;-73
2021/05/02 08:36:25;;;;;;;2.15;1.88;;;5.40;99.90;;;;;;5068568;28;20020;-73
2021/05/02 08:38:51;;;;;;;2.85;2.40;;;5.60;99.90;;;;;;5051838;28;20481;-73
2021/05/02 08:41:17;;;;;;;2.70;2.35;;;5.40;99.90;;;;;;5051956;28;20021;-73
2021/05/02 08:43:47;;;;;;;2.65;2.45;;;5.40;99.90;;;;;;5052214;28;20053;-73
2021/05/02 08:46:13;;;;;;;2.63;2.42;;;5.50;99.90;;;;;;5052216;28;20055;-73
2021/05/02 08:48:39;;;;;;;2.58;2.33;;;5.60;99.90;;;;;;5051767;28;20025;-73
2021/05/02 08:51:04;;;;;;;3.70;3.33;;;5.60;99.90;;;;;;5051652;28;20025;-72
2021/05/02 08:53:30;;;;;;;2.38;2.17;;;5.70;99.90;;;;;;5050809;28;20083;-72
2021/05/02 08:55:57;;;;;;;2.92;2.72;;;5.90;99.90;;;;;;5051904;28;20021;-72
2021/05/02 08:58:25;;;;;;;3.80;3.28;;;5.60;99.90;;;;;;5051705;28;20037;-73
2021/05/02 09:00:51;;;;;;;4.03;2.70;;;5.80;99.90;;;;;;5050546;28;20021;-73
2021/05/02 09:03:18;;;;;;;4.00;3.60;;;5.80;99.90;;;;;;5050493;28;20104;-73
2021/05/02 09:05:50;;;;;;;5.30;4.25;;;5.70;99.90;;;;;;5051460;28;20033;-73
2021/05/02 09:08:36;;;;;;;4.38;3.45;;;5.70;99.90;;;;;;5033885;28;20092;-73
2021/05/02 09:11:03;;;;;;;6.82;4.35;;;5.70;99.90;;;;;;5050335;28;20484;-73
2021/05/02 09:13:30;;;;;;;4.85;4.28;;;5.90;99.90;;;;;;5054380;28;20049;-72
2021/05/02 09:15:58;;;;;;;6.40;5.25;;;5.80;99.90;;;;;;5054195;28;20100;-73
2021/05/02 09:18:40;;;;;;;5.43;4.20;;;5.90;99.90;;;;;;5055714;28;20473;-73
2021/05/02 09:21:08;;;;;;;5.38;4.72;;;5.90;99.90;;;;;;5054549;28;20075;-73
2021/05/02 09:23:42;;;;;;;5.20;4.65;;;5.80;99.90;;;;;;5055721;28;20028;-73
2021/05/02 09:26:21;;;;;;;6.93;4.13;;;5.70;99.90;;;;;;5055455;28;20049;-73
2021/05/02 09:28:50;;;;;;;6.00;4.85;;;5.70;99.90;;;;;;5055337;28;20066;-73
2021/05/02 09:31:19;;;;;;;5.57;4.45;;;5.50;99.90;;;;;;5055203;28;20096;-73
2021/05/02 09:33:46;;;;;;;5.85;4.93;;;5.80;99.90;;;;;;5053837;28;20029;-72
2021/05/02 09:36:16;;;;;;;5.05;4.30;;;5.90;99.90;;;;;;5053777;28;20029;-73
2021/05/02 09:38:43;;;;;;;6.78;5.60;;;6.00;99.90;;;;;;5055128;28;20040;-73
2021/05/02 09:41:11;;;;;;;5.88;5.28;;;5.90;99.90;;;;;;5055020;28;20055;-73
2021/05/02 09:43:44;;;;;;;7.43;5.18;;;6.00;99.90;;;;;;5055072;28;20468;-72
2021/05/02 09:49:13;;;;;;;5.25;4.38;;;6.30;99.90;;;;;;5054936;28;20127;-73
2021/05/02 09:51:51;;;;;;;5.50;4.60;;;6.50;99.90;;;;;;5054900;28;20028;-73
2021/05/02 09:54:27;;;;;;;5.20;4.70;;;6.50;99.90;;;;;;5054891;28;20362;-73
2021/05/02 09:56:54;;;;;;;5.22;4.65;;;6.20;99.90;;;;;;5054616;28;20021;-73
2021/05/02 09:59:34;;;;;;;5.35;4.63;;;6.30;99.90;;;;;;5054599;28;20071;-73
2021/05/02 10:02:11;;;;;;;5.93;5.18;;;6.50;99.90;;;;;;5054679;28;20100;-73
2021/05/02 10:04:42;;;;;;;7.25;5.93;;;6.70;99.90;;;;;;5054593;28;20098;-73
2021/05/02 10:07:13;;;;;;;8.75;5.55;;;6.60;99.90;;;;;;5054491;28;20025;-73
2021/05/02 10:09:40;;;;;;;7.25;6.45;;;6.70;99.90;;;;;;5054546;28;20025;-73
2021/05/02 10:12:07;;;;;;;7.03;5.90;;;6.70;99.90;;;;;;5054950;28;20582;-73
2021/05/02 10:14:37;;;;;;;9.02;7.18;;;6.80;99.90;;;;;;5054649;28;20049;-73
2021/05/02 10:17:03;;;;;;;8.07;6.75;;;6.80;99.90;;;;;;5054532;28;20036;-73
2021/05/02 10:19:30;;;;;;;9.45;7.55;;;6.90;99.90;;;;;;5054474;28;20085;-73
2021/05/02 10:21:56;;;;;;;8.02;6.72;;;6.90;99.90;;;;;;5054199;28;20025;-73
2021/05/02 10:24:22;;;;;;;8.18;7.30;;;6.90;99.90;;;;;;5054311;28;20029;-73
2021/05/02 10:26:53;;;;;;;6.90;6.22;;;7.00;99.90;;;;;;5053861;28;20033;-73
2021/05/02 10:29:30;;;;;;;7.55;6.22;;;6.90;99.90;;;;;;5052913;28;20025;-73
2021/05/02 10:32:01;;;;;;;7.28;6.43;;;6.80;99.90;;;;;;5054011;28;20108;-73
2021/05/02 10:34:34;;;;;;;8.10;6.03;;;6.90;99.90;;;;;;5054046;28;20377;-73
2021/05/02 10:37:22;;;;;;;5.78;4.70;;;7.20;99.90;;;;;;5053963;28;20024;-73
2021/05/02 10:39:59;;;;;;;5.95;4.90;;;7.00;99.90;;;;;;5053878;28;20481;-73
2021/05/02 10:42:51;;;;;;;7.28;5.63;;;7.10;99.90;;;;;;5035911;28;20473;-72
2021/05/02 10:45:33;;;;;;;6.93;6.00;;;6.90;99.90;;;;;;5053879;28;20017;-73
2021/05/02 10:48:01;;;;;;;5.40;4.47;;;6.90;99.90;;;;;;5053645;28;20028;-73
2021/05/02 10:50:45;;;;;;;9.70;8.32;;;7.10;99.90;;;;;;5053851;28;20051;-73
2021/05/02 10:53:20;;;;;;;11.88;10.15;;;7.20;99.90;;;;;;5052470;28;20024;-73
2021/05/02 10:56:03;;;;;;;11.90;9.02;;;7.50;99.90;;;;;;5053784;28;20029;-73
2021/05/02 10:58:37;;;;;;;9.32;7.70;;;7.50;99.90;;;;;;5052434;28;20057;-73
2021/05/02 11:01:05;;;;;;;12.32;8.48;;;7.40;99.90;;;;;;5052138;28;20075;-72
2021/05/02 11:03:40;;;;;;;8.35;7.40;;;7.40;99.90;;;;;;5052128;28;20057;-72
2021/05/02 11:06:07;;;;;;;9.45;7.38;;;7.50;99.90;;;;;;5052045;28;20025;-73
2021/05/02 11:08:49;;;;;;;13.10;8.63;;;7.50;99.90;;;;;;5061429;28;20024;-72
2021/05/02 11:11:30;;;;;;;11.60;8.55;;;7.60;99.90;;;;;;5072062;28;20507;-73
2021/05/02 11:14:09;;;;;;;8.97;7.83;;;7.30;99.90;;;;;;5073169;28;20021;-73
2021/05/02 11:16:50;;;;;;;13.70;10.45;;;7.50;99.90;;;;;;5071791;28;20025;-72
2021/05/02 11:19:38;;;;;;;14.40;11.55;;;7.80;99.90;;;;;;5071717;28;20480;-72
2021/05/02 11:22:04;;;;;;;14.80;11.23;;;7.50;99.90;;;;;;5073048;28;20077;-72
2021/05/02 11:24:43;;;;;;;15.52;12.80;;;7.90;99.90;;;;;;5071659;28;20020;-73
2021/05/02 11:29:51;;;;;;;19.05;15.50;;;8.50;99.90;;;;;;5072948;28;20534;-73
2021/05/02 11:32:26;;;;;;;19.08;15.77;;;8.40;99.90;;;;;;5072809;28;20108;-73
2021/05/02 11:34:51;;;;;;;24.83;15.80;;;8.20;99.90;;;;;;5070916;28;20051;-72
2021/05/02 11:37:45;;;;;;;23.98;17.70;;;8.50;99.90;;;;;;5058529;28;20068;-73
2021/05/02 11:40:33;;;;;;;23.17;16.45;;;8.30;99.90;;;;;;5052584;28;20053;-73
2021/05/02 11:43:00;;;;;;;22.42;17.92;;;8.00;99.90;;;;;;5052702;28;20130;-73
2021/05/02 11:45:32;;;;;;;20.77;17.05;;;8.30;99.90;;;;;;5051262;28;20107;-73
2021/05/02 11:48:01;;;;;;;21.23;16.73;;;8.40;99.90;;;;;;5051256;28;20052;-73
2021/05/02 11:50:27;;;;;;;20.27;17.27;;;8.50;99.90;;;;;;5052479;28;20048;-73
2021/05/02 11:52:54;;;;;;;21.67;16.20;;;8.20;99.90;;;;;;5052357;28;20060;-73
2021/05/02 11:55:32;;;;;;;19.42;15.35;;;8.20;99.90;;;;;;5052342;28;20031;-73
2021/05/02 11:58:04;;;;;;;22.20;18.55;;;8.20;99.90;;;;;;5052339;28;20104;-73
2021/05/02 12:00:38;;;;;;;21.52;17.42;;;8.10;99.90;;;;;;5060234;28;20111;-73
2021/05/02 12:03:12;;;;;;;21.13;16.13;;;8.00;99.90;;;;;;5071103;28;20712;-73
2021/05/02 12:05:52;;;;;;;17.85;15.55;;;7.80;99.90;;;;;;5072155;28;20036;-73
2021/05/02 12:08:21;;;;;;;21.50;15.98;;;7.90;99.90;;;;;;5072310;28;20210;-73
2021/05/02 12:11:00;;;;;;;16.17;13.63;;;8.20;99.90;;;;;;5072239;28;20048;-73
2021/05/02 12:13:36;;;;;;;3.78;3.40;;;8.00;99.90;;;;;;5072338;28;20105;-73
2021/05/02 12:16:10;;;;;;;18.45;13.82;;;8.00;99.90;;;;;;5072025;28;20448;-72
2021/05/02 12:18:49;;;;;;;20.75;15.60;;;8.30;99.90;;;;;;5070964;28;20107;-72
2021/05/02 12:21:39;;;;;;;21.65;17.38;;;8.20;99.90;;;;;;5072113;28;20024;-72
2021/05/02 12:24:07;;;;;;;24.73;18.50;;;8.30;99.90;;;;;;5032151;28;20018;-73
2021/05/02 12:26:35;;;;;;;21.88;18.42;;;8.60;99.90;;;;;;5032043;28;20478;-72
2021/05/02 12:29:07;;;;;;;27.90;19.88;;;8.80;99.90;;;;;;5032003;28;20473;-72
2021/05/02 12:31:35;;;;;;;25.17;20.42;;;8.90;99.90;;;;;;5032028;28;20026;-72
2021/05/02 12:34:04;;;;;;;24.55;19.85;;;9.20;99.90;;;;;;5022748;28;20524;-71
2021/05/02 12:36:30;;;;;;;24.92;20.83;;;9.10;99.90;;;;;;5051910;28;20369;-72
2021/05/02 12:39:12;;;;;;;23.27;19.27;;;9.00;99.90;;;;;;5051902;28;20025;-73
2021/05/02 12:41:43;;;;;;;27.50;21.98;;;9.10;99.90;;;;;;5051823;28;20385;-73
2021/05/02 12:44:20;;;;;;;25.13;20.65;;;8.60;99.90;;;;;;5051538;28;20025;-73
2021/05/02 12:46:56;;;;;;;23.77;19.48;;;8.50;99.90;;;;;;5053240;28;20108;-73
2021/05/02 12:49:34;;;;;;;21.80;19.08;;;8.70;99.90;;;;;;5055979;28;20497;-73
2021/05/02 12:52:12;;;;;;;25.05;19.77;;;8.50;99.90;;;;;;5054631;28;20426;-73
2021/05/02 12:54:37;;;;;;;21.58;18.13;;;8.70;99.90;;;;;;5055895;28;20040;-73
2021/05/02 12:57:16;;;;;;;24.20;19.85;;;8.70;99.90;;;;;;5055722;28;20033;-74
2021/05/02 12:59:51;;;;;;;22.60;18.33;;;8.70;99.90;;;;;;5055717;28;20032;-74
2021/05/02 13:02:25;;;;;;;21.80;18.92;;;8.70;99.90;;;;;;5055756;28;20028;-73
2021/05/02 13:04:54;;;;;;;25.80;18.75;;;8.60;99.90;;;;;;5065623;28;20013;-74
2021/05/02 13:07:45;;;;;;;23.45;19.48;;;8.70;99.90;;;;;;5075500;28;20086;-73
2021/05/02 13:10:25;;;;;;;25.27;19.13;;;8.80;99.90;;;;;;5074523;28;20032;-74